Time;durP1;ratioP1;P1;durP2;ratioP2;P2;SDS_P1;SDS_P2;PMS_P1;PMS_P2;Temp;Humidity;BMP_temperature;BMP_pressure;BME280_temperature;BME280_humidity;BME280_pressure;Samples;Min_cycle;Max_cycle;Signal;HPM_P1;HPM_P2
2022/03/27 00:02:32;;;;;;;15.60;8.95;;;;;;;;;;8149096;28;20043;-59
2022/03/27 00:06:32;;;;;;;17.50;10.20;;;;;;;;;;8150390;28;20147;-59
2022/03/27 00:11:23;;;;;;;14.40;8.60;;;;;;;;;;8147490;28;20225;-59
2022/03/27 00:14:52;;;;;;;15.43;8.68;;;;;;;;;;8151109;29;20081;-59
2022/03/27 00:18:53;;;;;;;14.88;9.90;;;;;;;;;;8148593;28;20293;-59
2022/03/27 00:22:54;;;;;;;16.17;9.27;;;;;;;;;;8148716;28;20170;-59
2022/03/27 00:26:55;;;;;;;13.30;8.68;;;;;;;;;;8149112;29;20038;-58
2022/03/27 00:30:55;;;;;;;15.45;8.98;;;;;;;;;;8149617;28;20360;-59
2022/03/27 00:34:55;;;;;;;16.08;9.27;;;;;;;;;;8146257;28;20035;-59
2022/03/27 00:38:55;;;;;;;13.75;9.40;;;;;;;;;;8148731;29;20039;-59
2022/03/27 00:42:55;;;;;;;15.20;8.77;;;;;;;;;;8147285;29;20027;-59
2022/03/27 00:46:55;;;;;;;14.05;9.30;;;;;;;;;;8147634;28;20036;-59
2022/03/27 00:50:56;;;;;;;14.93;9.90;;;;;;;;;;8149944;28;20402;-59
2022/03/27 00:54:56;;;;;;;16.25;10.63;;;;;;;;;;8147384;29;20035;-59
2022/03/27 00:58:56;;;;;;;16.98;9.88;;;;;;;;;;8148581;28;20113;-59
2022/03/27 01:02:57;;;;;;;15.20;10.30;;;;;;;;;;8145948;28;20035;-58
2022/03/27 01:06:57;;;;;;;17.30;10.13;;;;;;;;;;8145264;28;20034;-59
2022/03/27 01:10:58;;;;;;;14.73;9.32;;;;;;;;;;8141796;29;20115;-59
2022/03/27 01:14:58;;;;;;;15.03;9.77;;;;;;;;;;8145495;29;20027;-59
2022/03/27 01:19:02;;;;;;;17.30;9.93;;;;;;;;;;8144863;28;20287;-59
2022/03/27 01:23:06;;;;;;;17.83;10.55;;;;;;;;;;8147354;29;20527;-58
2022/03/27 01:27:06;;;;;;;13.95;9.90;;;;;;;;;;8146849;29;20146;-59
2022/03/27 01:31:07;;;;;;;19.42;9.93;;;;;;;;;;8148013;28;20066;-59
2022/03/27 01:35:10;;;;;;;14.40;10.05;;;;;;;;;;8146971;28;20118;-59
2022/03/27 01:39:11;;;;;;;15.03;10.27;;;;;;;;;;8147269;28;20568;-59
2022/03/27 01:43:12;;;;;;;14.73;10.32;;;;;;;;;;8146115;29;20027;-59
2022/03/27 01:47:12;;;;;;;21.48;9.45;;;;;;;;;;8146670;28;20039;-58
2022/03/27 01:51:12;;;;;;;16.92;10.40;;;;;;;;;;8147454;28;20023;-59
2022/03/27 01:55:16;;;;;;;15.83;9.33;;;;;;;;;;8145506;29;20074;-60
2022/03/27 01:59:16;;;;;;;16.83;10.35;;;;;;;;;;8146531;28;20349;-59
2022/03/27 02:03:16;;;;;;;15.88;10.18;;;;;;;;;;8147281;28;20146;-58
2022/03/27 02:07:17;;;;;;;19.52;10.10;;;;;;;;;;8146626;28;20519;-59
2022/03/27 02:11:18;;;;;;;16.35;9.95;;;;;;;;;;8143788;28;20035;-58
2022/03/27 02:15:18;;;;;;;17.92;10.90;;;;;;;;;;8146262;28;20030;-58
2022/03/27 02:19:18;;;;;;;16.35;10.60;;;;;;;;;;8146292;28;20058;-58
2022/03/27 02:23:19;;;;;;;15.95;10.48;;;;;;;;;;8148213;29;20031;-58
2022/03/27 02:27:19;;;;;;;19.90;10.57;;;;;;;;;;8145692;28;20158;-58
2022/03/27 02:31:19;;;;;;;19.17;10.40;;;;;;;;;;8148753;28;20566;-59
2022/03/27 02:35:20;;;;;;;19.57;10.60;;;;;;;;;;8144771;29;20035;-59
2022/03/27 02:39:20;;;;;;;17.17;10.98;;;;;;;;;;8145298;29;20338;-58
2022/03/27 02:43:21;;;;;;;17.83;10.93;;;;;;;;;;8145531;29;20117;-59
2022/03/27 02:47:21;;;;;;;14.95;10.82;;;;;;;;;;8146359;28;20046;-58
2022/03/27 02:51:21;;;;;;;18.67;10.93;;;;;;;;;;8145904;28;20054;-58
2022/03/27 02:55:22;;;;;;;15.10;10.52;;;;;;;;;;8146780;29;20136;-58
2022/03/27 02:59:24;;;;;;;13.88;9.90;;;;;;;;;;8145149;29;20042;-58
2022/03/27 03:03:24;;;;;;;18.73;11.13;;;;;;;;;;8145888;28;20040;-59
2022/03/27 03:07:24;;;;;;;16.20;10.63;;;;;;;;;;8145338;28;20027;-58
2022/03/27 03:11:25;;;;;;;14.43;9.88;;;;;;;;;;8144948;28;20491;-59
2022/03/27 03:15:26;;;;;;;16.10;11.00;;;;;;;;;;8145269;28;20035;-59
2022/03/27 03:19:26;;;;;;;19.95;11.35;;;;;;;;;;8144280;28;20255;-59
2022/03/27 03:23:26;;;;;;;17.53;10.40;;;;;;;;;;8150020;28;20023;-58
2022/03/27 03:27:26;;;;;;;16.75;11.00;;;;;;;;;;8149891;29;20369;-59
2022/03/27 03:31:27;;;;;;;13.80;9.85;;;;;;;;;;8149172;28;20135;-59
2022/03/27 03:35:27;;;;;;;16.55;9.98;;;;;;;;;;8150995;28;20106;-59
2022/03/27 03:39:27;;;;;;;16.73;10.70;;;;;;;;;;8149591;29;20051;-58
2022/03/27 03:43:27;;;;;;;17.15;10.55;;;;;;;;;;8152389;29;20027;-59
2022/03/27 03:47:27;;;;;;;14.87;10.80;;;;;;;;;;8147463;28;20040;-59
2022/03/27 03:51:28;;;;;;;18.45;11.75;;;;;;;;;;8151507;28;20283;-59
2022/03/27 03:55:28;;;;;;;15.40;10.75;;;;;;;;;;8149465;28;20027;-58
2022/03/27 03:59:29;;;;;;;13.52;10.15;;;;;;;;;;8152401;29;20023;-59
2022/03/27 04:03:30;;;;;;;14.90;10.93;;;;;;;;;;8151163;28;20078;-58
2022/03/27 04:07:30;;;;;;;16.52;11.10;;;;;;;;;;8149052;29;20059;-59
2022/03/27 04:11:30;;;;;;;15.77;10.85;;;;;;;;;;8149902;29;20668;-59
2022/03/27 04:15:30;;;;;;;19.90;11.82;;;;;;;;;;8151143;28;20031;-59
2022/03/27 04:19:31;;;;;;;17.75;11.15;;;;;;;;;;8150412;28;20489;-59
2022/03/27 04:23:31;;;;;;;17.97;12.00;;;;;;;;;;8146324;29;20651;-59
2022/03/27 04:27:31;;;;;;;16.20;11.35;;;;;;;;;;8150596;29;20107;-58
2022/03/27 04:31:31;;;;;;;17.95;10.55;;;;;;;;;;8148948;28;20039;-60
2022/03/27 04:35:31;;;;;;;17.63;12.48;;;;;;;;;;8147051;28;20027;-59
2022/03/27 04:39:32;;;;;;;17.40;11.25;;;;;;;;;;8148730;29;20114;-58
2022/03/27 04:43:32;;;;;;;18.27;11.73;;;;;;;;;;8148476;28;20023;-58
2022/03/27 04:47:33;;;;;;;18.23;11.57;;;;;;;;;;8149778;28;20035;-59
2022/03/27 04:51:33;;;;;;;19.77;12.35;;;;;;;;;;8149110;28;20145;-59
2022/03/27 04:55:33;;;;;;;18.50;11.83;;;;;;;;;;8146854;28;20110;-59
2022/03/27 04:59:33;;;;;;;18.35;12.32;;;;;;;;;;8148845;28;20275;-58
2022/03/27 05:03:34;;;;;;;20.25;12.20;;;;;;;;;;8145820;28;20130;-59
2022/03/27 05:07:36;;;;;;;23.83;11.63;;;;;;;;;;8149647;29;20685;-59
2022/03/27 05:11:38;;;;;;;17.58;11.38;;;;;;;;;;8150132;28;20326;-59
2022/03/27 05:15:38;;;;;;;17.30;10.90;;;;;;;;;;8147888;28;20047;-58
2022/03/27 05:19:38;;;;;;;15.80;11.63;;;;;;;;;;8147101;28;20901;-59
2022/03/27 05:23:38;;;;;;;17.60;11.55;;;;;;;;;;8147885;28;20066;-59
2022/03/27 05:27:46;;;;;;;18.33;11.82;;;;;;;;;;8147255;28;20110;-58
2022/03/27 05:31:46;;;;;;;19.38;12.07;;;;;;;;;;8146857;28;20043;-59
2022/03/27 05:35:46;;;;;;;21.30;12.57;;;;;;;;;;8144176;29;20023;-59
2022/03/27 05:39:47;;;;;;;19.80;13.02;;;;;;;;;;8145220;29;20492;-59
2022/03/27 05:43:47;;;;;;;22.90;13.73;;;;;;;;;;8146744;28;20030;-59
2022/03/27 05:47:47;;;;;;;20.48;12.00;;;;;;;;;;8148025;28;20062;-58
2022/03/27 05:51:47;;;;;;;22.13;12.13;;;;;;;;;;8143605;28;20031;-59
2022/03/27 05:55:48;;;;;;;17.70;12.02;;;;;;;;;;8146750;29;20746;-59
2022/03/27 05:59:48;;;;;;;18.65;11.02;;;;;;;;;;8148586;29;20023;-59
2022/03/27 06:03:48;;;;;;;18.92;11.60;;;;;;;;;;8146590;28;20092;-58
2022/03/27 06:07:51;;;;;;;20.07;11.30;;;;;;;;;;8146715;28;20724;-59
2022/03/27 06:11:51;;;;;;;16.08;11.07;;;;;;;;;;8144486;28;20295;-59
2022/03/27 06:15:52;;;;;;;15.73;10.70;;;;;;;;;;8148697;28;20050;-59
2022/03/27 06:19:52;;;;;;;19.27;10.80;;;;;;;;;;8145274;28;20614;-59
2022/03/27 06:23:52;;;;;;;14.35;10.77;;;;;;;;;;8146852;28;20032;-59
2022/03/27 06:27:53;;;;;;;16.38;10.25;;;;;;;;;;8142813;28;20034;-59
2022/03/27 06:31:53;;;;;;;16.83;10.40;;;;;;;;;;8145669;28;20388;-60
2022/03/27 06:35:53;;;;;;;14.05;10.15;;;;;;;;;;8145688;28;20259;-60
2022/03/27 06:39:54;;;;;;;15.23;10.45;;;;;;;;;;8144012;29;20042;-60
2022/03/27 06:43:54;;;;;;;13.27;9.85;;;;;;;;;;8147581;28;20058;-60
2022/03/27 06:47:55;;;;;;;15.38;10.10;;;;;;;;;;8144287;28;20047;-60
2022/03/27 06:51:55;;;;;;;17.15;10.70;;;;;;;;;;8145928;28;20034;-60
2022/03/27 06:55:55;;;;;;;16.67;10.77;;;;;;;;;;8143697;28;20957;-61
2022/03/27 07:04:14;;;;;;;15.57;10.30;;;;;;;;;;8146511;28;20380;-60
2022/03/27 07:08:15;;;;;;;12.68;9.88;;;;;;;;;;8144616;29;20459;-60
2022/03/27 07:12:17;;;;;;;10.75;9.43;;;;;;;;;;8145970;28;20039;-60
2022/03/27 07:16:17;;;;;;;14.23;9.90;;;;;;;;;;8145236;28;20039;-60
2022/03/27 07:20:18;;;;;;;12.70;9.57;;;;;;;;;;8146271;28;20038;-60
2022/03/27 07:24:19;;;;;;;13.40;9.38;;;;;;;;;;8145687;29;20106;-60
2022/03/27 07:28:19;;;;;;;11.32;9.60;;;;;;;;;;8147393;29;20043;-60
2022/03/27 07:32:19;;;;;;;13.38;9.98;;;;;;;;;;8144792;28;20111;-60
2022/03/27 07:36:19;;;;;;;13.27;9.82;;;;;;;;;;8145659;28;20685;-60
2022/03/27 07:40:22;;;;;;;12.65;10.30;;;;;;;;;;8143207;28;20034;-60
2022/03/27 07:44:22;;;;;;;;;;;;;;;;;;8145994;28;20046;-60
2022/03/27 07:48:23;;;;;;;15.07;10.20;;;;;;;;;;8144971;28;19919;-60
2022/03/27 07:52:23;;;;;;;12.13;10.17;;;;;;;;;;8144584;28;20097;-60
2022/03/27 07:56:23;;;;;;;13.00;11.23;;;;;;;;;;8146151;29;20144;-60
2022/03/27 08:00:25;;;;;;;15.88;11.65;;;;;;;;;;8142955;28;20094;-60
2022/03/27 08:04:25;;;;;;;13.38;10.95;;;;;;;;;;8141378;29;20027;-60
2022/03/27 08:08:25;;;;;;;15.75;10.77;;;;;;;;;;8145608;28;20137;-60
2022/03/27 08:12:28;;;;;;;14.80;11.00;;;;;;;;;;8148912;28;20350;-60
2022/03/27 08:16:29;;;;;;;13.68;10.65;;;;;;;;;;8150524;28;20047;-60
2022/03/27 08:20:29;;;;;;;16.40;11.07;;;;;;;;;;8149821;28;20035;-60
2022/03/27 08:24:29;;;;;;;12.10;10.77;;;;;;;;;;8148272;29;20039;-60
2022/03/27 08:28:29;;;;;;;12.30;10.13;;;;;;;;;;8151140;29;20600;-60
2022/03/27 08:32:30;;;;;;;12.98;10.57;;;;;;;;;;8147040;28;20066;-61
2022/03/27 08:36:30;;;;;;;12.17;10.60;;;;;;;;;;8148439;29;20138;-60
2022/03/27 08:40:30;;;;;;;14.45;9.75;;;;;;;;;;8147638;29;20046;-60
2022/03/27 08:44:30;;;;;;;12.60;9.43;;;;;;;;;;8150768;28;20028;-60
2022/03/27 08:48:31;;;;;;;12.57;10.23;;;;;;;;;;8148561;28;20054;-60
2022/03/27 08:52:35;;;;;;;14.85;10.65;;;;;;;;;;8147932;28;20113;-60
2022/03/27 08:56:35;;;;;;;13.38;9.68;;;;;;;;;;8146863;28;20037;-60
2022/03/27 09:00:36;;;;;;;12.75;11.00;;;;;;;;;;8148774;28;20134;-60
2022/03/27 09:04:36;;;;;;;17.15;10.95;;;;;;;;;;8149241;29;20027;-60
2022/03/27 09:08:37;;;;;;;14.38;10.75;;;;;;;;;;8147496;29;20045;-60
2022/03/27 09:12:38;;;;;;;13.50;10.88;;;;;;;;;;8148166;28;20019;-60
2022/03/27 09:16:57;;;;;;;14.43;11.30;;;;;;;;;;8147773;28;20039;-60
2022/03/27 09:21:00;;;;;;;15.20;10.50;;;;;;;;;;8145773;28;20038;-60
2022/03/27 09:25:03;;;;;;;12.25;10.30;;;;;;;;;;8146495;28;20030;-60
2022/03/27 09:29:08;;;;;;;13.15;9.85;;;;;;;;;;8148596;29;20054;-60
2022/03/27 09:33:08;;;;;;;11.65;9.52;;;;;;;;;;8146482;28;20067;-60
2022/03/27 09:37:27;;;;;;;15.13;11.02;;;;;;;;;;8147258;28;20038;-60
2022/03/27 09:41:34;;;;;;;13.77;10.30;;;;;;;;;;8146897;29;20627;-60
2022/03/27 09:45:35;;;;;;;15.00;11.10;;;;;;;;;;8148343;28;20281;-59
2022/03/27 09:49:35;;;;;;;15.75;10.43;;;;;;;;;;8147375;28;20047;-60
2022/03/27 09:53:36;;;;;;;13.60;11.20;;;;;;;;;;8147676;28;21231;-59
2022/03/27 09:57:37;;;;;;;13.80;10.68;;;;;;;;;;8147007;28;20297;-60
2022/03/27 10:01:37;;;;;;;12.20;10.23;;;;;;;;;;8143778;28;20178;-59
2022/03/27 10:05:38;;;;;;;12.10;10.55;;;;;;;;;;8147940;29;20043;-59
2022/03/27 10:09:38;;;;;;;11.57;9.85;;;;;;;;;;8138813;28;20027;-59
2022/03/27 10:13:39;;;;;;;18.85;10.63;;;;;;;;;;8142623;28;20031;-59
2022/03/27 10:17:42;;;;;;;12.40;10.57;;;;;;;;;;8143449;28;20043;-59
2022/03/27 10:21:43;;;;;;;16.63;11.75;;;;;;;;;;8142086;28;21048;-59
2022/03/27 10:25:45;;;;;;;12.95;10.48;;;;;;;;;;8142365;28;20566;-59
2022/03/27 10:29:46;;;;;;;13.40;10.23;;;;;;;;;;8143958;28;20139;-59
2022/03/27 10:33:48;;;;;;;13.90;9.32;;;;;;;;;;8140526;28;20082;-59
2022/03/27 10:37:59;;;;;;;11.57;9.40;;;;;;;;;;8141332;28;20057;-59
2022/03/27 10:42:11;;;;;;;17.20;9.32;;;;;;;;;;8141455;28;20074;-59
2022/03/27 10:46:17;;;;;;;12.32;9.55;;;;;;;;;;8141442;28;20490;-60
2022/03/27 10:50:22;;;;;;;12.50;8.43;;;;;;;;;;8140326;28;20635;-59
2022/03/27 10:54:22;;;;;;;19.75;9.18;;;;;;;;;;8143896;28;20024;-57
2022/03/27 10:58:30;;;;;;;11.85;8.57;;;;;;;;;;8141623;28;20038;-57
2022/03/27 11:02:50;;;;;;;22.58;10.60;;;;;;;;;;8139957;28;20038;-57
2022/03/27 11:06:52;;;;;;;13.32;9.98;;;;;;;;;;8143896;28;20027;-59
2022/03/27 11:10:55;;;;;;;12.00;8.60;;;;;;;;;;8140394;28;20556;-57
2022/03/27 11:14:59;;;;;;;12.80;7.68;;;;;;;;;;8140699;29;20404;-59
2022/03/27 11:18:59;;;;;;;9.35;6.72;;;;;;;;;;8142521;28;20565;-60
2022/03/27 11:23:01;;;;;;;10.80;7.35;;;;;;;;;;8144387;28;20325;-60
2022/03/27 11:27:01;;;;;;;9.73;7.00;;;;;;;;;;8146152;28;20134;-60
2022/03/27 11:31:04;;;;;;;11.07;7.30;;;;;;;;;;8142821;28;20058;-60
2022/03/27 11:35:13;;;;;;;9.95;6.88;;;;;;;;;;8146578;29;20705;-60
2022/03/27 11:39:31;;;;;;;13.00;10.27;;;;;;;;;;8142869;28;20280;-59
2022/03/27 11:43:32;;;;;;;11.60;6.88;;;;;;;;;;8148560;28;20031;-59
2022/03/27 11:47:37;;;;;;;10.82;8.05;;;;;;;;;;8151734;28;20133;-60
2022/03/27 11:51:38;;;;;;;7.90;6.43;;;;;;;;;;8150221;28;20035;-60
2022/03/27 11:55:39;;;;;;;8.02;5.75;;;;;;;;;;8150837;29;20114;-60
2022/03/27 11:59:49;;;;;;;8.63;5.70;;;;;;;;;;8152905;29;20027;-62
2022/03/27 12:03:56;;;;;;;65.00;46.63;;;;;;;;;;8148604;28;20035;-60
2022/03/27 12:07:56;;;;;;;147.70;100.13;;;;;;;;;;8154540;28;20373;-60
2022/03/27 12:12:03;;;;;;;19.73;13.45;;;;;;;;;;8153746;29;20079;-58
2022/03/27 12:16:04;;;;;;;24.80;17.70;;;;;;;;;;8150241;28;20039;-60
2022/03/27 12:20:05;;;;;;;8.50;6.70;;;;;;;;;;8152703;28;20032;-60
2022/03/27 12:24:06;;;;;;;8.88;6.10;;;;;;;;;;8156021;29;20119;-60
2022/03/27 12:32:25;;;;;;;25.13;19.67;;;;;;;;;;8154427;28;20131;-60
2022/03/27 12:36:26;;;;;;;12.70;9.73;;;;;;;;;;8155751;29;20474;-60
2022/03/27 12:40:26;;;;;;;8.70;5.67;;;;;;;;;;8155963;29;20417;-59
2022/03/27 12:44:45;;;;;;;8.23;5.95;;;;;;;;;;8158083;29;20510;-59
2022/03/27 12:48:56;;;;;;;19.42;15.70;;;;;;;;;;8153323;28;20674;-58
2022/03/27 12:52:57;;;;;;;8.45;7.20;;;;;;;;;;8154604;28;20059;-58
2022/03/27 12:56:58;;;;;;;14.13;11.05;;;;;;;;;;8153844;28;20142;-58
2022/03/27 13:01:08;;;;;;;8.73;7.25;;;;;;;;;;8154551;28;20043;-57
2022/03/27 13:05:09;;;;;;;18.45;15.43;;;;;;;;;;8155128;28;20102;-57
2022/03/27 13:09:10;;;;;;;12.15;8.45;;;;;;;;;;8154513;29;20337;-58
2022/03/27 13:13:13;;;;;;;13.57;8.40;;;;;;;;;;8155612;28;20030;-57
2022/03/27 13:17:13;;;;;;;;;;;;;;;;;;8152861;28;20083;-58
2022/03/27 13:21:17;;;;;;;49.20;33.35;;;;;;;;;;8151398;28;19997;-58
2022/03/27 13:25:17;;;;;;;36.58;23.80;;;;;;;;;;8153607;29;20032;-58
2022/03/27 13:29:19;;;;;;;13.35;9.77;;;;;;;;;;8152116;28;20028;-58
2022/03/27 13:33:19;;;;;;;10.05;7.65;;;;;;;;;;8154191;28;20090;-58
2022/03/27 13:37:19;;;;;;;29.20;19.45;;;;;;;;;;8154090;28;20118;-59
2022/03/27 13:45:41;;;;;;;10.50;7.20;;;;;;;;;;8152485;28;20081;-59
2022/03/27 13:49:41;;;;;;;11.43;7.63;;;;;;;;;;8155941;28;20738;-59
2022/03/27 13:53:42;;;;;;;9.63;6.97;;;;;;;;;;8152822;28;20046;-58
2022/03/27 13:57:42;;;;;;;12.82;7.35;;;;;;;;;;8156424;28;20115;-58
2022/03/27 14:01:43;;;;;;;10.90;7.22;;;;;;;;;;8154067;28;20035;-59
2022/03/27 14:05:44;;;;;;;12.65;7.28;;;;;;;;;;8152714;28;20037;-58
2022/03/27 14:09:44;;;;;;;13.23;10.20;;;;;;;;;;8153963;28;20035;-60
2022/03/27 14:13:44;;;;;;;16.20;9.77;;;;;;;;;;8156623;29;20271;-58
2022/03/27 14:17:48;;;;;;;17.63;13.70;;;;;;;;;;8155457;28;20042;-63
2022/03/27 14:21:49;;;;;;;8.75;7.22;;;;;;;;;;8155240;28;20122;-59
2022/03/27 14:25:50;;;;;;;9.05;6.68;;;;;;;;;;8154847;29;20087;-60
2022/03/27 14:29:50;;;;;;;49.60;31.30;;;;;;;;;;8154725;29;20015;-58
2022/03/27 14:33:50;;;;;;;16.27;8.57;;;;;;;;;;8156814;28;20417;-59
2022/03/27 14:37:50;;;;;;;12.70;8.55;;;;;;;;;;8152831;29;20222;-58
2022/03/27 14:41:50;;;;;;;8.32;6.25;;;;;;;;;;8153486;29;20046;-58
2022/03/27 14:45:51;;;;;;;8.20;5.75;;;;;;;;;;8154892;28;20043;-58
2022/03/27 14:49:51;;;;;;;8.45;6.60;;;;;;;;;;8154184;28;20035;-57
2022/03/27 14:58:14;;;;;;;10.90;8.00;;;;;;;;;;8154058;29;20050;-58
2022/03/27 15:02:17;;;;;;;13.23;8.77;;;;;;;;;;8165104;28;20043;-58
2022/03/27 15:06:17;;;;;;;24.65;15.70;;;;;;;;;;8154530;28;20023;-56
2022/03/27 15:10:17;;;;;;;65.80;40.40;;;;;;;;;;8151364;28;20031;-57
2022/03/27 15:14:17;;;;;;;11.93;8.50;;;;;;;;;;8154143;28;20027;-58
2022/03/27 15:18:17;;;;;;;8.23;6.37;;;;;;;;;;8152368;28;20043;-58
2022/03/27 15:22:18;;;;;;;11.18;8.85;;;;;;;;;;8152797;28;20916;-57
2022/03/27 15:26:18;;;;;;;15.97;11.60;;;;;;;;;;8155721;29;20035;-57
2022/03/27 15:30:18;;;;;;;8.45;6.88;;;;;;;;;;8153191;28;20283;-58
2022/03/27 15:34:18;;;;;;;36.47;22.93;;;;;;;;;;8152571;28;20142;-58
2022/03/27 15:38:19;;;;;;;21.85;15.55;;;;;;;;;;8153301;29;20086;-58
2022/03/27 15:42:19;;;;;;;14.25;9.98;;;;;;;;;;8153323;29;20040;-58
2022/03/27 15:46:19;;;;;;;16.70;10.65;;;;;;;;;;8151526;28;20039;-57
2022/03/27 15:50:22;;;;;;;37.20;30.03;;;;;;;;;;8152896;28;20035;-57
2022/03/27 15:54:22;;;;;;;11.52;7.35;;;;;;;;;;8152801;29;20274;-57
2022/03/27 15:58:22;;;;;;;11.02;8.20;;;;;;;;;;8154987;28;20061;-58
2022/03/27 16:02:23;;;;;;;14.00;8.15;;;;;;;;;;8150028;28;20236;-57
2022/03/27 16:06:23;;;;;;;10.10;6.50;;;;;;;;;;8154260;28;20023;-57
2022/03/27 16:10:23;;;;;;;49.35;32.88;;;;;;;;;;8151860;28;20596;-57
2022/03/27 16:14:24;;;;;;;15.57;11.03;;;;;;;;;;8152796;29;20896;-57
2022/03/27 16:18:24;;;;;;;9.40;6.95;;;;;;;;;;8151756;28;20538;-57
2022/03/27 16:22:24;;;;;;;9.23;6.10;;;;;;;;;;8150105;28;20126;-56
2022/03/27 16:26:25;;;;;;;11.35;5.53;;;;;;;;;;8150517;29;20950;-57
2022/03/27 16:30:25;;;;;;;7.53;6.20;;;;;;;;;;8158278;28;20094;-55
2022/03/27 16:34:29;;;;;;;8.60;5.53;;;;;;;;;;8159751;28;20023;-57
2022/03/27 16:38:30;;;;;;;7.75;6.85;;;;;;;;;;8159441;28;20343;-57
2022/03/27 16:42:30;;;;;;;10.75;8.35;;;;;;;;;;8157483;29;20142;-57
2022/03/27 16:46:30;;;;;;;33.22;21.73;;;;;;;;;;8157489;28;20047;-56
2022/03/27 16:50:31;;;;;;;15.85;9.50;;;;;;;;;;8157167;28;20907;-57
2022/03/27 16:54:31;;;;;;;11.93;6.07;;;;;;;;;;8161893;29;20085;-56
2022/03/27 16:58:31;;;;;;;7.20;6.18;;;;;;;;;;8156342;29;20141;-57
2022/03/27 17:02:31;;;;;;;8.05;5.20;;;;;;;;;;8157252;28;20218;-58
2022/03/27 17:06:32;;;;;;;6.93;5.50;;;;;;;;;;8156104;28;20053;-57
2022/03/27 17:10:32;;;;;;;8.63;5.70;;;;;;;;;;8155074;28;20221;-57
2022/03/27 17:14:32;;;;;;;7.15;5.30;;;;;;;;;;8158017;29;20138;-56
2022/03/27 17:18:35;;;;;;;5.68;4.88;;;;;;;;;;8155202;28;20044;-57
2022/03/27 17:22:36;;;;;;;14.50;7.97;;;;;;;;;;8154366;29;20035;-56
2022/03/27 17:26:36;;;;;;;9.88;5.72;;;;;;;;;;8154421;29;20548;-57
2022/03/27 17:30:37;;;;;;;9.48;5.53;;;;;;;;;;8155431;28;20039;-57
2022/03/27 17:34:38;;;;;;;10.80;5.68;;;;;;;;;;8154787;29;20129;-57
2022/03/27 17:38:38;;;;;;;19.33;9.68;;;;;;;;;;8155127;29;20035;-57
2022/03/27 17:42:38;;;;;;;15.73;9.45;;;;;;;;;;8152386;28;20169;-56
2022/03/27 17:46:38;;;;;;;8.10;6.15;;;;;;;;;;8154427;28;20130;-56
2022/03/27 17:50:40;;;;;;;8.97;7.10;;;;;;;;;;8152105;28;20111;-57
2022/03/27 17:54:40;;;;;;;7.80;5.72;;;;;;;;;;8147839;28;20298;-57
2022/03/27 17:58:40;;;;;;;10.20;6.65;;;;;;;;;;8151680;29;20035;-57
2022/03/27 18:02:41;;;;;;;9.82;6.72;;;;;;;;;;8151228;28;20046;-57
2022/03/27 18:06:42;;;;;;;15.48;7.32;;;;;;;;;;8149665;28;20027;-57
2022/03/27 18:10:42;;;;;;;12.43;8.60;;;;;;;;;;8150581;28;20055;-56
2022/03/27 18:14:43;;;;;;;8.93;7.22;;;;;;;;;;8152200;28;20023;-57
2022/03/27 18:18:44;;;;;;;10.07;6.63;;;;;;;;;;8150331;28;20070;-57
2022/03/27 18:22:44;;;;;;;7.95;6.32;;;;;;;;;;8152074;29;20425;-57
2022/03/27 18:26:45;;;;;;;10.00;6.18;;;;;;;;;;8150429;28;20090;-57
2022/03/27 18:30:45;;;;;;;10.20;6.65;;;;;;;;;;8151184;28;20039;-57
2022/03/27 18:34:45;;;;;;;10.90;6.30;;;;;;;;;;8149471;28;20724;-57
2022/03/27 18:38:46;;;;;;;8.45;6.18;;;;;;;;;;8150238;28;20035;-57
2022/03/27 18:42:46;;;;;;;9.07;6.60;;;;;;;;;;8150430;28;20399;-57
2022/03/27 18:46:46;;;;;;;9.98;6.43;;;;;;;;;;8150206;28;20031;-58
2022/03/27 18:50:47;;;;;;;11.15;5.38;;;;;;;;;;8149315;28;20034;-60
2022/03/27 18:54:47;;;;;;;12.68;7.10;;;;;;;;;;8147607;28;20110;-59
2022/03/27 18:58:48;;;;;;;12.95;6.32;;;;;;;;;;8146010;29;20541;-59
2022/03/27 19:02:48;;;;;;;11.82;6.72;;;;;;;;;;8145952;28;20043;-59
2022/03/27 19:06:49;;;;;;;17.05;10.23;;;;;;;;;;8146387;28;20019;-58
2022/03/27 19:10:49;;;;;;;14.33;8.60;;;;;;;;;;8146328;28;20781;-59
2022/03/27 19:14:49;;;;;;;39.67;24.55;;;;;;;;;;8149123;28;20377;-59
2022/03/27 19:18:50;;;;;;;37.28;23.08;;;;;;;;;;8145897;28;20134;-59
2022/03/27 19:22:58;;;;;;;33.92;20.38;;;;;;;;;;8148480;28;20054;-59
2022/03/27 19:26:58;;;;;;;26.00;14.20;;;;;;;;;;8145958;28;20673;-59
2022/03/27 19:30:59;;;;;;;21.17;12.68;;;;;;;;;;8145682;28;20051;-59
2022/03/27 19:34:59;;;;;;;17.45;10.63;;;;;;;;;;8147267;28;20681;-59
2022/03/27 19:38:59;;;;;;;15.32;9.70;;;;;;;;;;8149775;28;20027;-59
2022/03/27 19:43:00;;;;;;;15.95;9.60;;;;;;;;;;8147099;28;20091;-59
2022/03/27 19:47:00;;;;;;;12.73;8.27;;;;;;;;;;8149615;28;20066;-59
2022/03/27 19:51:01;;;;;;;30.20;18.20;;;;;;;;;;8138009;28;20321;-59
2022/03/27 19:55:02;;;;;;;32.17;19.77;;;;;;;;;;8151458;28;21061;-59
2022/03/27 19:59:03;;;;;;;24.33;14.27;;;;;;;;;;8138685;29;20686;-59
2022/03/27 20:03:05;;;;;;;17.25;10.75;;;;;;;;;;8139674;28;20050;-59
2022/03/27 20:07:05;;;;;;;15.68;9.77;;;;;;;;;;8145507;28;20027;-59
2022/03/27 20:11:07;;;;;;;13.25;9.55;;;;;;;;;;8140797;28;20480;-59
2022/03/27 20:15:07;;;;;;;14.88;9.25;;;;;;;;;;8145057;28;20110;-59
2022/03/27 20:19:07;;;;;;;12.18;9.07;;;;;;;;;;8142829;28;20035;-59
2022/03/27 20:23:07;;;;;;;12.15;8.88;;;;;;;;;;8145835;28;20035;-59
2022/03/27 20:27:08;;;;;;;15.02;8.15;;;;;;;;;;8144312;28;20024;-59
2022/03/27 20:31:08;;;;;;;9.70;8.35;;;;;;;;;;8143880;28;20425;-59
2022/03/27 20:35:08;;;;;;;11.50;8.80;;;;;;;;;;8143753;28;20035;-59
2022/03/27 20:39:08;;;;;;;13.55;8.55;;;;;;;;;;8142019;28;20515;-59
2022/03/27 20:43:09;;;;;;;10.65;8.48;;;;;;;;;;8143870;28;20055;-59
2022/03/27 20:47:09;;;;;;;10.63;8.40;;;;;;;;;;8144980;28;20035;-59
2022/03/27 20:51:10;;;;;;;12.90;8.00;;;;;;;;;;8141635;28;20049;-59
2022/03/27 20:55:10;;;;;;;11.50;8.15;;;;;;;;;;8143127;29;20036;-59
2022/03/27 20:59:10;;;;;;;11.02;8.00;;;;;;;;;;8142205;29;20131;-59
2022/03/27 21:03:11;;;;;;;11.75;7.95;;;;;;;;;;8143004;28;20061;-59
2022/03/27 21:07:11;;;;;;;9.70;7.15;;;;;;;;;;8144358;28;20028;-59
2022/03/27 21:11:11;;;;;;;9.65;7.43;;;;;;;;;;8138780;28;20027;-59
2022/03/27 21:15:11;;;;;;;12.32;7.18;;;;;;;;;;8142781;28;20032;-59
2022/03/27 21:19:12;;;;;;;10.40;7.43;;;;;;;;;;8141774;28;20070;-59
2022/03/27 21:23:12;;;;;;;8.20;6.65;;;;;;;;;;8143749;28;20147;-59
2022/03/27 21:27:12;;;;;;;9.15;6.75;;;;;;;;;;8144173;29;20469;-59
2022/03/27 21:31:12;;;;;;;8.77;7.00;;;;;;;;;;8143094;28;20122;-59
2022/03/27 21:35:13;;;;;;;7.32;6.03;;;;;;;;;;8141824;29;20293;-59
2022/03/27 21:39:13;;;;;;;9.30;7.15;;;;;;;;;;8142203;28;20513;-59
2022/03/27 21:43:14;;;;;;;13.43;6.65;;;;;;;;;;8143194;28;20028;-59
2022/03/27 21:47:14;;;;;;;10.60;6.30;;;;;;;;;;8141328;28;20039;-59
2022/03/27 21:51:14;;;;;;;8.38;6.57;;;;;;;;;;8141107;28;20317;-59
2022/03/27 21:55:14;;;;;;;8.23;6.68;;;;;;;;;;8142269;29;20035;-59
2022/03/27 21:59:15;;;;;;;8.00;6.38;;;;;;;;;;8141421;29;20031;-59
2022/03/27 22:03:17;;;;;;;7.38;6.30;;;;;;;;;;8141497;28;20073;-59
2022/03/27 22:07:20;;;;;;;7.70;6.38;;;;;;;;;;8142486;29;20023;-59
2022/03/27 22:11:20;;;;;;;9.17;6.67;;;;;;;;;;8141431;29;20857;-59
2022/03/27 22:15:21;;;;;;;7.43;6.00;;;;;;;;;;8141770;28;20023;-58
2022/03/27 22:19:21;;;;;;;7.37;5.97;;;;;;;;;;8145003;28;20037;-59
2022/03/27 22:23:21;;;;;;;8.73;6.18;;;;;;;;;;8147477;28;20313;-59
2022/03/27 22:27:21;;;;;;;5.97;5.37;;;;;;;;;;8150781;28;20023;-59
2022/03/27 22:31:22;;;;;;;9.05;5.82;;;;;;;;;;8147593;28;20268;-59
2022/03/27 22:35:22;;;;;;;8.85;5.72;;;;;;;;;;8149416;28;20644;-59
2022/03/27 22:39:22;;;;;;;8.75;5.97;;;;;;;;;;8147951;28;20708;-59
2022/03/27 22:43:23;;;;;;;8.57;6.05;;;;;;;;;;8149646;29;20039;-59
2022/03/27 22:47:23;;;;;;;6.75;5.65;;;;;;;;;;8148245;28;20553;-59
2022/03/27 22:51:23;;;;;;;6.70;5.95;;;;;;;;;;8146281;28;20027;-59
2022/03/27 22:55:23;;;;;;;7.00;5.85;;;;;;;;;;8148863;29;20078;-58
2022/03/27 22:59:23;;;;;;;7.15;5.78;;;;;;;;;;8147440;29;20050;-59
2022/03/27 23:03:24;;;;;;;7.95;5.50;;;;;;;;;;8147312;28;20043;-59
2022/03/27 23:07:24;;;;;;;6.70;5.45;;;;;;;;;;8148177;28;20027;-59
2022/03/27 23:11:24;;;;;;;6.30;5.32;;;;;;;;;;8148807;28;20027;-59
2022/03/27 23:15:25;;;;;;;7.95;6.18;;;;;;;;;;8148455;28;20031;-59
2022/03/27 23:19:25;;;;;;;7.18;5.22;;;;;;;;;;8147449;28;20123;-59
2022/03/27 23:23:26;;;;;;;8.43;6.57;;;;;;;;;;8148129;29;20031;-59
2022/03/27 23:27:26;;;;;;;9.88;6.13;;;;;;;;;;8146963;29;20512;-59
2022/03/27 23:31:26;;;;;;;5.95;5.32;;;;;;;;;;8146432;28;20709;-59
2022/03/27 23:35:26;;;;;;;6.35;5.55;;;;;;;;;;8147983;29;20456;-59
2022/03/27 23:39:26;;;;;;;8.27;5.78;;;;;;;;;;8149011;28;20942;-59
2022/03/27 23:43:27;;;;;;;9.68;6.07;;;;;;;;;;8154946;28;20039;-59
2022/03/27 23:47:27;;;;;;;9.63;5.72;;;;;;;;;;8152159;28;20105;-59
2022/03/27 23:51:28;;;;;;;6.40;5.35;;;;;;;;;;8155159;28;20030;-60
2022/03/27 23:55:28;;;;;;;6.50;5.60;;;;;;;;;;8151893;28;20313;-59
2022/03/27 23:59:29;;;;;;;6.38;5.38;;;;;;;;;;8151815;28;20049;-60
